createdAt,value
2018-09-06T09:09:35.630Z,96.20
2018-09-06T09:12:38.736Z,96.30
2018-09-06T09:15:42.022Z,95.30
2018-09-06T09:18:45.183Z,95.60
2018-09-06T09:21:48.345Z,95.30
2018-09-06T09:24:51.424Z,94.20
2018-09-06T09:27:55.341Z,94.50
2018-09-06T09:30:58.576Z,94.80
2018-09-06T09:34:01.693Z,94.30
2018-09-06T09:37:04.778Z,94.10
2018-09-06T09:40:07.984Z,93.80
2018-09-06T09:43:11.236Z,93.00
2018-09-06T09:49:16.737Z,92.70
2018-09-06T09:52:21.111Z,92.90
2018-09-06T09:55:24.206Z,92.30
2018-09-06T09:58:27.314Z,92.00
2018-09-06T10:01:35.895Z,91.60
2018-09-06T10:04:43.218Z,91.20
2018-09-06T10:07:51.874Z,91.30
2018-09-06T10:10:55.120Z,91.60
2018-09-06T10:13:58.247Z,91.60
2018-09-06T10:17:01.345Z,90.50
2018-09-06T10:20:04.494Z,89.90
2018-09-06T10:23:07.718Z,91.00
2018-09-06T10:29:39.235Z,90.90
2018-09-06T10:32:42.429Z,90.70
2018-09-06T10:35:45.518Z,90.70
2018-09-06T10:38:48.612Z,88.70
2018-09-06T10:41:51.743Z,89.10
2018-09-06T10:44:54.912Z,88.30
2018-09-06T10:47:58.070Z,88.70
2018-09-06T10:51:01.275Z,87.90
2018-09-06T10:54:04.367Z,90.00
2018-09-06T10:57:07.862Z,89.80
2018-09-06T11:00:10.980Z,86.70
2018-09-06T11:03:14.099Z,86.60
2018-09-06T11:06:17.255Z,83.70
2018-09-06T11:09:20.367Z,85.20
2018-09-06T11:12:23.491Z,81.90
2018-09-06T11:15:26.602Z,81.00
2018-09-06T11:18:29.866Z,81.40
2018-09-06T11:21:33.077Z,77.30
2018-09-06T11:24:36.060Z,78.00
2018-09-06T11:27:39.241Z,76.30
2018-09-06T11:30:42.252Z,76.70
2018-09-06T11:33:45.353Z,75.10
2018-09-06T11:36:48.423Z,74.70
2018-09-06T11:39:51.571Z,71.80
2018-09-06T11:42:54.661Z,71.10
2018-09-06T11:45:57.763Z,71.30
2018-09-06T11:49:00.867Z,70.60
2018-09-06T11:52:04.139Z,68.10
2018-09-06T11:55:08.311Z,67.70
2018-09-06T11:58:11.482Z,67.60
2018-09-06T12:01:14.623Z,67.30
2018-09-06T12:04:17.760Z,69.70
2018-09-06T12:07:20.846Z,68.40
2018-09-06T12:10:23.951Z,67.70
2018-09-06T12:13:27.059Z,66.70
2018-09-06T12:16:30.171Z,67.70
2018-09-06T12:19:33.353Z,65.70
2018-09-06T12:22:36.395Z,66.50
2018-09-06T12:25:39.542Z,66.40
2018-09-06T12:28:42.605Z,67.00
2018-09-06T12:31:45.706Z,65.70
2018-09-06T12:34:48.854Z,67.00
2018-09-06T12:37:51.946Z,66.00
2018-09-06T12:40:55.073Z,65.80
2018-09-06T12:43:58.412Z,65.20
2018-09-06T12:47:01.799Z,66.10
2018-09-06T12:50:04.915Z,65.30
2018-09-06T12:53:08.007Z,64.30
2018-09-06T12:56:11.115Z,60.40
2018-09-06T12:59:14.311Z,58.60
2018-09-06T13:02:17.405Z,57.90
2018-09-06T13:05:20.497Z,59.40
2018-09-06T13:08:23.615Z,58.50
2018-09-06T13:11:26.724Z,56.70
2018-09-06T13:14:29.820Z,57.30
2018-09-06T13:17:32.903Z,55.90
2018-09-06T13:20:36.071Z,56.80
2018-09-06T13:23:39.155Z,55.00
2018-09-06T13:26:42.256Z,52.80
2018-09-06T13:29:45.388Z,51.00
2018-09-06T13:32:48.501Z,51.60
2018-09-06T13:35:51.664Z,50.20
2018-09-06T13:38:54.803Z,49.40
2018-09-06T13:41:58.339Z,49.80
2018-09-06T13:45:01.460Z,47.60
2018-09-06T13:48:04.559Z,46.90
2018-09-06T13:51:07.739Z,48.60
2018-09-06T13:54:10.904Z,49.50
2018-09-06T13:57:13.984Z,50.00
2018-09-06T14:00:17.247Z,49.90
2018-09-06T14:03:20.320Z,50.50
2018-09-06T14:06:23.407Z,50.50
2018-09-06T14:09:26.588Z,51.50
2018-09-06T14:12:29.716Z,51.10
2018-09-06T14:15:32.827Z,51.20
2018-09-06T14:18:35.967Z,51.20
2018-09-06T14:21:39.139Z,50.50
2018-09-06T14:24:42.217Z,50.70
2018-09-06T14:27:45.426Z,51.90
2018-09-06T14:30:48.613Z,51.30
2018-09-06T14:33:51.962Z,52.30
2018-09-06T14:36:55.075Z,52.40
2018-09-06T14:39:58.300Z,54.70
2018-09-06T14:43:02.511Z,54.20
2018-09-06T14:46:05.606Z,55.40
2018-09-06T14:49:09.841Z,57.50
2018-09-06T14:52:12.935Z,56.50
2018-09-06T14:55:16.134Z,56.50
2018-09-06T14:58:19.238Z,56.80
2018-09-06T15:01:22.433Z,58.00
2018-09-06T15:04:25.468Z,56.00
2018-09-06T15:07:29.680Z,56.60
2018-09-06T15:10:32.802Z,57.30
2018-09-06T15:13:36.166Z,56.10
2018-09-06T15:16:39.432Z,56.60
2018-09-06T15:19:42.701Z,56.40
2018-09-06T15:22:45.829Z,58.80
2018-09-06T15:25:48.937Z,56.90
2018-09-06T15:28:52.234Z,57.20
2018-09-06T15:31:55.929Z,58.00
2018-09-06T15:34:59.162Z,58.00
2018-09-06T15:38:02.326Z,57.40
2018-09-06T15:41:05.469Z,58.10
2018-09-06T15:44:08.717Z,56.50
2018-09-06T15:47:11.884Z,58.40
2018-09-06T15:50:14.984Z,57.50
2018-09-06T15:53:18.074Z,56.20
2018-09-06T15:56:21.208Z,56.30
2018-09-06T15:59:24.292Z,57.50
2018-09-06T16:02:27.472Z,53.30
2018-09-06T16:05:30.575Z,52.80
2018-09-06T16:08:33.767Z,53.40
2018-09-06T16:11:36.951Z,53.00
2018-09-06T16:14:40.244Z,53.30
2018-09-06T16:17:44.023Z,57.20
2018-09-06T16:20:48.248Z,57.00
2018-09-06T16:23:51.364Z,57.30
2018-09-06T16:26:54.603Z,59.20
2018-09-06T16:29:57.691Z,59.50
2018-09-06T16:33:00.811Z,59.90
2018-09-06T16:36:03.937Z,61.30
2018-09-06T16:39:08.479Z,61.70
2018-09-06T16:42:11.576Z,63.90
2018-09-06T16:45:14.711Z,64.70
2018-09-06T16:48:17.825Z,64.60
2018-09-06T16:51:21.004Z,64.10
2018-09-06T16:54:24.095Z,64.70
2018-09-06T16:57:27.179Z,64.90
2018-09-06T17:00:30.324Z,64.90
2018-09-06T17:03:33.413Z,66.70
2018-09-06T17:06:36.550Z,66.10
2018-09-06T17:09:39.679Z,66.80
2018-09-06T17:12:42.887Z,66.50
2018-09-06T17:15:45.995Z,67.20
2018-09-06T17:18:49.067Z,67.30
2018-09-06T17:21:52.178Z,67.70
2018-09-06T17:24:55.343Z,68.50
2018-09-06T17:27:58.428Z,68.60
2018-09-06T17:31:01.607Z,68.80
2018-09-06T17:34:04.814Z,68.90
2018-09-06T17:37:07.962Z,69.30
2018-09-06T17:40:11.128Z,71.20
2018-09-06T17:43:14.219Z,70.60
2018-09-06T17:46:17.404Z,70.00
2018-09-06T17:49:20.554Z,70.20
2018-09-06T17:52:23.766Z,70.30
2018-09-06T17:55:26.902Z,73.20
2018-09-06T17:58:30.095Z,76.50
2018-09-06T18:01:35.662Z,77.80
2018-09-06T18:04:38.759Z,78.70
2018-09-06T18:07:42.052Z,78.70
2018-09-06T18:10:45.505Z,79.10
2018-09-06T18:13:48.772Z,79.20
2018-09-06T18:16:51.948Z,80.40
2018-09-06T18:19:55.067Z,81.30
2018-09-06T18:22:58.312Z,82.30
2018-09-06T18:26:01.463Z,82.80
2018-09-06T18:29:04.611Z,83.30
2018-09-06T18:32:07.804Z,84.40
2018-09-06T18:35:12.039Z,84.80
2018-09-06T18:38:15.220Z,86.20
2018-09-06T18:41:18.542Z,88.30
2018-09-06T18:44:21.644Z,87.80
2018-09-06T18:47:24.824Z,88.70
2018-09-06T18:50:27.971Z,88.90
2018-09-06T18:53:31.084Z,88.90
2018-09-06T18:56:34.304Z,90.10
2018-09-06T18:59:37.572Z,90.40
2018-09-06T19:02:40.732Z,90.70
2018-09-06T19:05:43.892Z,90.70
2018-09-06T19:08:47.112Z,90.90
2018-09-06T19:11:50.215Z,90.90
2018-09-06T19:14:53.353Z,91.10
2018-09-06T19:17:56.468Z,91.00
2018-09-06T19:20:59.655Z,90.80
2018-09-06T19:24:03.007Z,90.90
2018-09-06T19:27:06.459Z,90.90
2018-09-06T19:30:09.591Z,90.90
2018-09-06T19:33:12.727Z,91.00
2018-09-06T19:36:15.840Z,91.10
2018-09-06T19:39:19.028Z,91.40
2018-09-06T19:42:22.340Z,91.50
2018-09-06T19:45:25.497Z,91.50
2018-09-06T19:48:28.700Z,91.50
2018-09-06T19:51:31.820Z,91.80
2018-09-06T19:54:34.962Z,91.80
2018-09-06T19:57:38.115Z,91.60
2018-09-06T20:00:41.312Z,91.80
2018-09-06T20:03:45.082Z,92.30
2018-09-06T20:06:48.442Z,92.90
2018-09-06T20:09:51.611Z,92.80
2018-09-06T20:12:54.846Z,92.90
2018-09-06T20:15:58.207Z,92.70
2018-09-06T20:19:01.361Z,93.00
2018-09-06T20:22:07.421Z,93.00
2018-09-06T20:25:10.676Z,93.40
2018-09-06T20:28:15.836Z,93.50
2018-09-06T20:31:18.975Z,93.40
2018-09-06T20:34:22.116Z,93.30
2018-09-06T20:37:25.251Z,93.40
2018-09-06T20:40:28.431Z,93.30
2018-09-06T20:43:32.160Z,93.30
2018-09-06T20:46:35.277Z,93.30
2018-09-06T20:49:38.373Z,93.40
2018-09-06T20:52:41.467Z,93.70
2018-09-06T20:55:44.669Z,94.00
2018-09-06T20:58:47.763Z,94.50
2018-09-06T21:01:50.876Z,95.20
2018-09-06T21:04:54.578Z,95.70
2018-09-06T21:07:57.789Z,96.10
2018-09-06T21:11:01.167Z,96.60
2018-09-06T21:14:04.347Z,97.50
2018-09-06T21:17:07.630Z,97.40
2018-09-06T21:20:10.727Z,98.50
2018-09-06T21:23:13.822Z,98.30
2018-09-06T21:26:16.916Z,98.50
2018-09-06T21:29:19.987Z,99.90
2018-09-06T21:32:23.097Z,99.90
2018-09-06T21:35:26.236Z,99.90
2018-09-06T21:38:29.308Z,99.90
2018-09-06T21:41:32.427Z,99.90
2018-09-06T21:44:35.517Z,99.90
2018-09-06T21:47:38.626Z,99.90
2018-09-06T21:50:41.731Z,99.90
2018-09-06T21:53:44.822Z,99.90
2018-09-06T21:56:48.066Z,99.90
2018-09-06T21:59:51.143Z,99.90
2018-09-06T22:02:59.536Z,99.90
2018-09-06T22:06:02.638Z,99.90
2018-09-06T22:09:09.560Z,99.90
2018-09-06T22:12:16.695Z,99.90
2018-09-06T22:15:20.019Z,99.90
2018-09-06T22:18:23.144Z,99.90
2018-09-06T22:21:26.364Z,99.90
2018-09-06T22:24:29.459Z,99.90
2018-09-06T22:27:32.567Z,99.90
2018-09-06T22:30:35.687Z,99.90
2018-09-06T22:33:38.823Z,99.90
2018-09-06T22:36:41.906Z,99.90
2018-09-06T22:39:45.083Z,99.90
2018-09-06T22:42:48.188Z,99.90
2018-09-06T22:45:51.339Z,99.90
2018-09-06T22:48:54.468Z,99.90
2018-09-06T22:51:57.540Z,99.90
2018-09-06T22:55:00.635Z,99.90
2018-09-06T22:58:03.880Z,99.90
2018-09-06T23:01:07.130Z,99.90
2018-09-06T23:04:10.303Z,99.90
2018-09-06T23:07:13.449Z,99.90
2018-09-06T23:10:16.684Z,99.90
2018-09-06T23:13:19.760Z,99.90
2018-09-06T23:16:22.895Z,99.90
2018-09-06T23:19:25.992Z,99.90
2018-09-06T23:22:29.059Z,99.90
2018-09-06T23:25:32.153Z,99.90
2018-09-06T23:28:35.490Z,99.90
2018-09-06T23:31:38.564Z,99.90
2018-09-06T23:34:41.800Z,99.90
2018-09-06T23:37:44.943Z,99.90
2018-09-06T23:40:53.499Z,99.90
2018-09-06T23:43:56.595Z,99.90
2018-09-06T23:46:59.927Z,99.90
2018-09-06T23:50:03.072Z,99.90
2018-09-06T23:53:06.330Z,99.90
2018-09-06T23:56:09.515Z,99.90
2018-09-06T23:59:12.710Z,99.90
